Latest Weather Observations for Swan Hill

IDN60801

Issued at 8:32 am EST Friday 28 April 2017 (issued every 30 minutes, with the page automatically refreshed every 10 minutes)

About weather observations | Map of weather stations | Latest weather observations for NSW | Other Formats
Station Details ID: 077094 Name: SWAN HILL AERODROME Lat: -35.38 Lon: 143.54 Height: 71.0 m
Data from the previous 72 hours. | See also: Recent months at Swan Hill
Date/Time
EST
Temp
°C
App
Temp
°C
Dew
Point
°C
Rel
Hum
%
Delta-T
°C
Wind Press
QNH
hPa
Press
MSL
hPa
Rain since
9am
mm
Dir  Spd
km/h
Gust
km/h
Spd
kts
Gust
kts
28/08:30am 11.8 9.0 10.0 89 0.9 SW 15 20 8 11 1026.3 1026.2 0.0
28/08:00am 11.2 8.4 10.0 92 0.6 WSW 15 20 8 11 1025.9 1025.8 0.0
28/07:30am 9.8 9.1 8.6 92 0.6 SW 2 7 1 4 1025.7 1025.6 0.0
28/07:00am 9.4 7.8 8.0 91 0.7 SW 6 7 3 4 1025.5 1025.4 0.0
28/06:30am 8.8 7.0 7.3 90 0.7 SW 6 7 3 4 1025.3 1025.2 0.0
28/06:00am 9.6 7.4 7.9 89 0.8 SW 9 11 5 6 1025.1 1025.0 0.0
28/05:30am 10.3 8.2 8.4 88 0.9 WSW 9 11 5 6 1025.0 1024.9 0.0
28/05:00am 11.2 8.2 9.1 87 1.0 WSW 15 19 8 10 1024.8 1024.7 0.0
28/04:30am 10.9 8.2 8.8 87 1.0 WSW 13 17 7 9 1024.7 1024.6 0.0
28/04:00am 11.3 8.2 8.9 85 1.2 WSW 15 22 8 12 1024.6 1024.5 0.0
28/03:30am 11.8 8.8 9.2 84 1.3 WSW 15 20 8 11 1024.6 1024.5 0.0
28/03:00am 11.9 8.5 9.1 83 1.4 WSW 17 22 9 12 1024.7 1024.6 0.0
28/02:30am 11.9 8.4 8.9 82 1.5 WSW 17 22 9 12 1024.8 1024.7 0.0
28/02:00am 11.9 8.4 8.7 81 1.6 WSW 17 20 9 11 1024.8 1024.7 0.0
28/01:30am 12.1 9.0 8.8 80 1.7 WSW 15 20 8 11 1024.9 1024.8 0.0
28/01:00am 12.1 8.6 8.6 79 1.7 WSW 17 20 9 11 1024.9 1024.8 0.0
28/12:30am 12.1 8.9 8.6 79 1.7 WSW 15 19 8 10 1025.0 1024.9 0.0
28/12:00am 12.1 9.3 8.4 78 1.8 WSW 13 17 7 9 1025.1 1025.0 0.0
 
Date/Time
EST
Temp
°C
App
Temp
°C
Dew
Point
°C
Rel
Hum
%
Delta-T
°C
Wind Press
QNH
hPa
Press
MSL
hPa
Rain since
9am
mm
Dir  Spd
km/h
Gust
km/h
Spd
kts
Gust
kts
27/11:30pm 12.2 9.7 8.1 76 2.0 SW 11 15 6 8 1025.3 1025.2 0.0
27/11:00pm 12.4 9.8 7.9 74 2.2 SW 11 15 6 8 1025.4 1025.3 0.0
27/10:30pm 12.5 9.1 7.6 72 2.4 SW 15 19 8 10 1025.3 1025.2 0.0
27/10:00pm 12.6 8.8 7.5 71 2.5 WSW 17 22 9 12 1025.0 1024.9 0.0
27/09:30pm 12.4 8.5 7.3 71 2.5 WSW 17 22 9 12 1025.0 1024.9 0.0
27/09:00pm 11.9 9.9 7.0 72 2.3 SW 7 11 4 6 1024.9 1024.8 0.0
27/08:30pm 11.9 8.7 6.8 71 2.4 SW 13 17 7 9 1025.0 1024.9 0.0
27/08:00pm 12.5 8.9 6.8 68 2.7 WSW 15 20 8 11 1024.9 1024.8 0.0
27/07:30pm 12.8 9.2 6.8 67 2.9 SW 15 19 8 10 1024.8 1024.7 0.0
27/07:00pm 12.9 9.7 6.7 66 3.0 WSW 13 17 7 9 1024.3 1024.2 0.0
27/06:30pm 13.3 9.5 5.7 60 3.6 SW 15 19 8 10 1024.1 1024.0 0.0
27/06:00pm 13.5 10.1 5.7 59 3.7 SW 13 17 7 9 1023.9 1023.8 0.0
27/05:30pm 13.8 9.9 5.4 57 4.0 SSW 15 22 8 12 1023.9 1023.8 0.0
27/05:00pm 14.0 9.7 5.1 55 4.2 SSW 17 22 9 12 1023.8 1023.7 0.0
27/04:30pm 14.0 10.4 5.1 55 4.2 SSW 13 19 7 10 1023.9 1023.8 0.0
27/04:00pm 14.0 9.1 4.3 52 4.4 SSW 19 30 10 16 1023.6 1023.5 0.0
27/03:30pm 14.4 9.7 5.0 53 4.4 SSW 19 30 10 16 1023.9 1023.8 0.0
27/03:00pm 14.0 8.9 4.3 52 4.4 SSW 20 32 11 17 1023.5 1023.4 0.0
27/02:30pm 13.8 8.7 4.1 52 4.4 SSW 20 30 11 16 1023.3 1023.2 0.0
27/02:00pm 13.8 8.7 4.1 52 4.4 SSW 20 32 11 17 1023.5 1023.4 0.0
27/01:30pm 14.5 9.5 3.6 48 5.0 S 19 30 10 16 1023.7 1023.6 0.0
27/01:00pm 14.1 8.6 3.8 50 4.7 SSW 22 39 12 21 1024.1 1024.0 0.0
27/12:30pm 14.4 9.3 4.1 50 4.7 SSW 20 33 11 18 1024.5 1024.4 0.0
27/12:00pm 14.2 9.3 4.2 51 4.6 SSW 19 35 10 19 1024.7 1024.6 0.0
27/11:30am 13.6 8.5 3.9 52 4.4 SSW 20 39 11 21 1025.0 1024.9 0.0
27/11:00am 13.0 7.5 3.9 54 4.1 SSW 22 35 12 19 1025.2 1025.1 0.0
27/10:30am 12.3 6.4 4.0 57 3.7 SSW 24 33 13 18 1025.2 1025.1 0.0
27/10:00am 11.9 6.9 4.6 61 3.3 SSW 20 32 11 17 1025.3 1025.2 0.0
27/09:30am 10.8 5.6 5.6 70 2.4 SW 22 32 12 17 1025.1 1025.0 0.0
27/09:00am 9.2 4.0 5.4 77 1.7 SW 22 30 12 16 1024.9 1024.8 0.0
27/08:30am 7.9 2.6 5.0 82 1.3 SW 22 28 12 15 1024.6 1024.5 0.0
27/08:00am 6.8 2.0 4.5 85 1.0 SW 19 28 10 15 1024.2 1024.1 0.0
27/07:30am 6.1 1.6 4.3 88 0.8 SW 17 22 9 12 1023.7 1023.6 0.0
27/07:00am 5.8 0.9 4.1 89 0.7 SW 19 28 10 15 1023.7 1023.6 0.0
27/06:30am 5.8 1.3 4.1 89 0.7 SW 17 22 9 12 1023.2 1023.1 0.0
27/06:00am 5.9 1.4 4.2 89 0.7 SW 17 20 9 11 1023.1 1023.0 0.0
27/05:30am 6.0 1.5 4.3 89 0.7 SW 17 22 9 12 1022.7 1022.6 0.0
27/05:00am 6.3 1.5 4.6 89 0.7 SW 19 24 10 13 1022.5 1022.4 0.0
27/04:30am 6.4 2.0 4.6 88 0.8 SW 17 22 9 12 1022.3 1022.2 0.0
27/04:00am 6.6 2.2 4.6 87 0.9 SW 17 20 9 11 1022.2 1022.1 0.0
27/03:30am 6.8 2.0 4.6 86 1.0 SW 19 22 10 12 1022.1 1022.0 0.0
27/03:00am 7.0 2.6 4.8 86 1.0 SW 17 22 9 12 1022.2 1022.1 0.0
27/02:30am 7.1 2.7 4.8 85 1.0 SW 17 22 9 12 1022.2 1022.1 0.0
27/02:00am 7.2 2.4 4.7 84 1.1 SW 19 24 10 13 1022.1 1022.0 0.0
27/01:30am 7.4 3.3 4.5 82 1.3 SW 15 20 8 11 1021.9 1021.8 0.0
27/01:00am 7.6 2.8 4.7 82 1.3 SW 19 22 10 12 1021.7 1021.6 0.0
27/12:30am 7.9 3.5 4.8 81 1.4 SW 17 22 9 12 1021.8 1021.7 0.0
27/12:00am 8.3 3.9 4.7 78 1.6 SW 17 24 9 13 1021.6 1021.5 0.0
 
Date/Time
EST
Temp
°C
App
Temp
°C
Dew
Point
°C
Rel
Hum
%
Delta-T
°C
Wind Press
QNH
hPa
Press
MSL
hPa
Rain since
9am
mm
Dir  Spd
km/h
Gust
km/h
Spd
kts
Gust
kts
26/11:30pm 8.8 4.1 5.0 77 1.7 SW 19 22 10 12 1021.7 1021.6 0.0
26/11:00pm 9.3 4.9 4.9 74 2.0 SW 17 26 9 14 1021.7 1021.6 0.0
26/10:30pm 9.7 4.6 4.3 69 2.4 SW 20 28 11 15 1021.6 1021.5 0.0
26/10:00pm 9.9 5.0 4.3 68 2.5 SW 19 26 10 14 1021.4 1021.3 0.0
26/09:30pm 9.9 5.8 4.5 69 2.4 SW 15 22 8 12 1021.1 1021.0 0.0
26/09:00pm 9.7 5.1 3.9 67 2.5 SW 17 20 9 11 1020.9 1020.8 0.0
26/08:30pm 10.2 5.2 3.5 63 2.9 SSW 19 28 10 15 1020.5 1020.4 0.0
26/08:00pm 10.5 5.4 3.3 61 3.1 SSW 19 32 10 17 1020.3 1020.2 0.0
26/07:30pm 10.8 5.7 2.9 58 3.4 SSW 19 26 10 14 1020.0 1019.9 0.0
26/07:00pm 11.2 5.8 2.2 54 3.9 SSW 20 32 11 17 1019.8 1019.7 0.0
26/06:30pm 11.1 5.3 2.2 54 3.8 SW 22 33 12 18 1019.2 1019.1 0.0
26/06:00pm 11.3 6.0 2.9 56 3.7 SW 20 30 11 16 1018.7 1018.6 0.0
26/05:30pm 11.6 6.2 2.6 54 3.9 SSW 20 28 11 15 1017.9 1017.9 0.0
26/05:00pm 12.2 6.5 2.6 52 4.2 SSW 22 35 12 19 1017.5 1017.5 0.0
26/04:35pm 12.7 5.7 2.0 48 4.6 SSW 28 46 15 25 1017.2 1017.2 0.0
26/04:30pm 13.1 6.6 2.4 48 4.7 SSW 26 41 14 22 1017.1 1017.1 0.0
26/04:00pm 13.3 5.4 1.3 44 5.1 SSW 32 50 17 27 1016.6 1016.5 0.0
26/03:30pm 13.7 5.3 1.4 43 5.3 SSW 35 56 19 30 1016.2 1016.1 0.0
26/03:00pm 12.8 5.3 3.5 53 4.2 S 32 57 17 31 1015.9 1015.8 0.0
26/02:30pm 14.0 5.3 2.3 45 5.2 SSW 37 57 20 31 1015.3 1015.2 0.0
26/02:01pm 12.9 6.3 4.1 55 4.0 SSW 28 46 15 25 1015.3 1015.2 0.0
26/02:00pm 13.1 6.5 4.3 55 4.0 SSW 28 43 15 23 1015.4 1015.3 0.0
26/01:50pm 13.7 6.7 4.0 52 4.4 SSW 30 48 16 26 1015.2 1015.1 0.0
26/01:42pm 13.7 6.2 4.6 54 4.2 SSW 33 48 18 26 1015.0 1014.9 0.0
26/01:30pm 13.9 6.1 6.5 61 3.6 SW 37 59 20 32 1014.8 1014.7 0.0
26/01:26pm 14.0 7.0 5.9 58 3.9 SW 32 56 17 30 1014.8 1014.7 0.0
26/01:00pm 13.4 6.7 5.6 59 3.7 SW 30 46 16 25 1014.8 1014.7 0.0
26/12:43pm 13.9 6.8 5.5 57 4.0 SW 32 50 17 27 1014.6 1014.5 0.0
26/12:30pm 13.0 5.8 5.7 61 3.4 SW 33 48 18 26 1014.7 1014.6 0.0
26/12:22pm 13.6 6.8 5.3 57 3.9 SSW 30 48 16 26 1014.6 1014.5 0.0
26/12:00pm 13.9 6.5 5.0 55 4.2 SSW 33 48 18 26 1014.5 1014.4 0.0
26/11:42am 13.3 5.5 4.7 56 4.0 SSW 35 54 19 29 1014.4 1014.3 0.0
26/11:30am 13.2 5.9 5.6 60 3.6 SW 33 48 18 26 1014.5 1014.4 0.0
26/11:00am 12.6 5.5 5.3 61 3.4 SW 32 48 17 26 1014.0 1013.9 0.0
26/10:52am 12.8 6.1 5.7 62 3.3 SW 30 48 16 26 1013.9 1013.8 0.0
26/10:30am 12.5 5.8 5.7 63 3.2 SW 30 44 16 24 1013.7 1013.6 0.0
26/10:00am 11.8 5.8 5.2 64 3.0 SSW 26 43 14 23 1013.1 1013.0 0.0
26/09:30am 11.1 5.6 5.8 70 2.5 SSW 24 35 13 19 1012.9 1012.8 0.0
26/09:00am 10.3 4.2 6.6 78 1.7 SSW 28 43 15 23 1012.4 1012.3 2.6
26/08:36am 10.2 3.7 6.4 77 1.8 SSW 30 48 16 26 1011.9 1011.8 2.6
26/08:30am 10.2 3.7 6.5 78 1.7 SW 30 41 16 22 1011.8 1011.7 2.6
26/08:08am 9.7 3.2 6.4 80 1.5 SW 30 48 16 26 1011.4 1011.3 2.6
26/08:00am 9.4 2.2 6.1 80 1.5 SW 33 43 18 23 1011.2 1011.1 2.6
26/07:30am 9.6 2.6 6.1 79 1.6 SW 32 48 17 26 1010.5 1010.4 2.6
26/07:00am 10.2 4.3 7.4 83 1.3 SW 28 39 15 21 1009.8 1009.7 2.6
26/06:30am 10.6 3.9 7.5 81 1.5 SW 32 41 17 22 1009.6 1009.5 2.6
26/06:00am 11.3 5.7 8.9 85 1.2 WSW 28 37 15 20 1009.0 1008.9 2.6
26/05:30am 11.3 6.2 9.2 87 1.1 WSW 26 32 14 17 1008.6 1008.5 2.6
26/05:00am 11.2 6.8 8.9 86 1.1 WSW 22 30 12 16 1008.2 1008.1 2.6
26/04:30am 11.3 5.0 8.9 85 1.2 SW 32 43 17 23 1008.0 1007.9 2.4
26/04:19am 11.5 4.6 8.9 84 1.3 SW 35 54 19 29 1008.0 1007.9 2.4
26/04:17am 11.5 4.6 8.9 84 1.3 SW 35 54 19 29 1008.0 1007.9 2.4
26/04:16am 11.5 4.7 9.1 85 1.2 SW 35 54 19 29 1008.0 1007.9 2.4
26/04:00am 12.2 4.2 10.3 88 1.0 WSW 43 56 23 30 1007.6 1007.5 1.8
26/03:59am 12.3 4.6 10.2 87 1.1 WSW 41 56 22 30 1007.6 1007.5 1.6
26/03:58am 12.3 4.6 10.2 87 1.1 WSW 41 56 22 30 1007.7 1007.6 1.4
26/03:56am 12.3 5.3 10.0 86 1.2 W 37 56 20 30 1007.6 1007.5 1.4
26/03:54am 12.3 5.7 10.0 86 1.2 W 35 56 19 30 1007.5 1007.4 1.2
26/03:51am 13.4 7.7 11.3 87 1.1 WNW 32 56 17 30 1007.5 1007.4 1.0
26/03:30am 13.4 9.3 11.5 88 1.0 WNW 24 32 13 17 1007.1 1007.0 0.8
26/03:15am 13.5 9.8 11.4 87 1.1 WNW 22 30 12 16 1007.1 1007.0 0.8
26/03:00am 13.4 10.0 11.3 87 1.1 WNW 20 28 11 15 1007.4 1007.3 0.8
26/02:30am 13.4 10.0 11.3 87 1.1 WNW 20 26 11 14 1007.7 1007.6 0.8
26/02:00am 13.2 9.9 10.9 86 1.2 WNW 19 22 10 12 1007.9 1007.8 0.8
26/01:30am 12.6 10.4 10.7 88 1.0 NW 13 17 7 9 1007.9 1007.8 0.8
26/01:00am 13.2 10.7 10.9 86 1.2 WNW 15 19 8 10 1008.0 1007.9 0.8
26/12:30am 13.1 10.5 10.8 86 1.2 W 15 17 8 9 1008.5 1008.4 0.8
26/12:00am 12.6 10.3 10.3 86 1.2 W 13 13 7 7 1008.5 1008.4 0.6
 
Date/Time
EST
Temp
°C
App
Temp
°C
Dew
Point
°C
Rel
Hum
%
Delta-T
°C
Wind Press
QNH
hPa
Press
MSL
hPa
Rain since
9am
mm
Dir  Spd
km/h
Gust
km/h
Spd
kts
Gust
kts
25/11:30pm 13.5 10.9 10.7 83 1.5 WSW 15 17 8 9 1008.7 1008.6 0.6
25/11:00pm 14.1 11.3 11.3 83 1.5 W 17 22 9 12 1008.8 1008.7 0.6
25/10:30pm 14.3 12.3 11.6 84 1.5 W 13 17 7 9 1008.8 1008.7 0.6
25/10:00pm 14.5 12.8 12.4 87 1.1 WNW 13 17 7 9 1009.0 1008.9 0.6
25/09:30pm 15.2 13.3 12.9 86 1.3 WNW 15 19 8 10 1009.2 1009.1 0.6
25/09:00pm 15.8 13.6 13.3 85 1.4 W 17 22 9 12 1009.2 1009.1 0.6
25/08:30pm 15.6 12.9 12.9 84 1.5 NW 19 24 10 13 1009.3 1009.2 0.0
25/08:00pm 14.9 13.2 12.4 85 1.4 NNW 13 15 7 8 1009.0 1008.9 0.0
25/07:30pm 15.1 13.8 12.6 85 1.4 NNW 11 15 6 8 1008.9 1008.8 0.0
25/07:00pm 15.4 13.7 12.3 82 1.7 NW 13 15 7 8 1009.0 1008.9 0.0
25/06:30pm 16.2 14.2 12.6 79 2.0 NW 15 17 8 9 1008.8 1008.7 0.0
25/06:00pm 18.1 16.4 12.5 70 3.1 WNW 13 26 7 14 1008.7 1008.6 0.0
25/05:30pm 19.3 17.5 12.1 63 4.0 W 13 17 7 9 1008.5 1008.4 0.0
25/05:00pm 19.0 16.8 12.0 64 3.9 WSW 15 20 8 11 1008.6 1008.5 0.0
25/04:30pm 20.1 16.8 11.6 58 4.7 WSW 20 26 11 14 1008.6 1008.5 0.0
25/04:00pm 20.4 17.9 12.4 60 4.5 SW 17 24 9 13 1008.5 1008.4 0.0
25/03:30pm 20.2 16.9 11.7 58 4.7 SW 20 28 11 15 1008.5 1008.4 0.0
25/03:00pm 20.6 16.9 11.5 56 5.1 WSW 22 32 12 17 1008.7 1008.6 0.0
25/02:30pm 20.2 15.3 11.4 57 4.9 WSW 28 35 15 19 1008.8 1008.7 0.0
25/02:00pm 19.5 15.7 12.5 64 3.9 WSW 24 33 13 18 1008.8 1008.7 0.0
25/01:30pm 20.0 15.5 12.7 63 4.1 WSW 28 35 15 19 1009.1 1009.0 0.0
25/01:00pm 18.9 14.9 13.1 69 3.3 WSW 26 32 14 17 1009.6 1009.5 0.0
25/12:30pm 18.8 15.2 13.2 70 3.2 WSW 24 30 13 16 1009.8 1009.7 0.0
25/12:00pm 18.9 16.0 14.0 73 2.8 WSW 22 28 12 15 1010.0 1009.9 0.0
25/11:30am 18.6 15.1 13.5 72 2.9 WSW 24 28 13 15 1010.3 1010.2 0.0
25/11:00am 17.8 14.0 13.7 77 2.3 WSW 26 33 14 18 1010.7 1010.6 0.0
25/10:30am 18.2 14.4 13.5 74 2.7 WSW 26 30 14 16 1010.5 1010.4 0.0
25/10:00am 17.9 13.9 14.0 78 2.2 WSW 28 35 15 19 1010.6 1010.5 0.0
25/09:45am 17.2 13.9 14.1 82 1.8 WSW 24 33 13 18 1010.7 1010.6 0.0
25/09:30am 17.1 14.4 14.7 86 1.4 WSW 22 33 12 18 1010.7 1010.6 0.0
25/09:00am 17.0 14.6 15.3 90 1.0 W 22 28 12 15 1010.6 1010.5 11.6
25/08:48am 17.0 15.0 15.5 91 0.9 W 20 28 11 15 1010.5 1010.4 11.6
25/08:32am 16.8 15.0 15.5 92 0.8 WNW 19 24 10 13 1010.4 1010.3 11.6

Other Formats:

Comma delimited format used in spreadsheet applications
http://www.bom.gov.au/fwo/IDN60801/IDN60801.94843.axf

JavaScript Object Notation format (JSON) in row-major order
http://www.bom.gov.au/fwo/IDN60801/IDN60801.94843.json